Airfield :
LOGIN :

Register | Disclaimer

   EN    FR    IT 

 










Legend :    VFR   Marginal VFR   IFR   Intensive IFR   Very Intensive IFR
Visi :
Ceiling :
>= 8 km
>= 3000ft
5 to 8 km
1000 to 3000 ft
1500m to 5 km
500 to 1000 ft
800 to 1500m
200 to 500 ft
< 800m
< 200 ft
Symbols :   Thunderstorms  Fog  Heavy snow  Heavy precipitations  Wind > 20 kt
SIGMETs :     Misc.  Thunderstorms  Icing  Turbulence  Mountain Waves  Volcanic Ashes







- Airport Elevation : 374 ft
- IATA code : LIS


LPPT - Lisboa Portela

CURRENT METAR :
  • 202230Z 09005KT CAVOK 19/14 Q1016

EXPIRED METARs :
  • 202200Z VRB02KT CAVOK 19/14 Q1016
  • 202130Z VRB01KT CAVOK 19/13 Q1016
  • 202100Z VRB02KT CAVOK 20/13 Q1016
  • 202030Z 16004KT 140V230 CAVOK 19/13 Q1016
  • 202000Z 14006KT 110V240 CAVOK 20/14 Q1015

TAF TAF LPPT
Valid from the 20 at 18:00 until the 22 at 00:00 UTC


201700Z 2018/2124 14008KT 9999 FEW030
TEMPO 2018/2108 8000 SHRA FEW008 BKN015
PROB30
TEMPO 2018/2106 VRB10G25KT 3000 TSRA BKN010 SCT025CB
BECMG 2019/2021 08007KT SCT018
BECMG 2111/2113 14007KT SCT035
BECMG 2118/2120 VRB03KT
No reported NOTAMs for that airfield.



MET'MAP, your aeronautical weather chart ! - Copyright ORBIFLY December 2007 - Disclaimer

ORBIFLY MET'MAP TEAM :

Programming & Development : Alexandra Zaïnal
Concept & Development : Baudouin d'Aumeries
Co-Development & Prog : Marc-Olivier Méhu
Technical & hardware support : Manuel Goepfert

Contact : metmap@orbifly.com




SOURCES & CREDITS :

   NOAA